createdAt,value
2022-11-01T00:02:22.877Z,98922.44
2022-11-01T00:07:26.130Z,98927.41
2022-11-01T00:12:31.373Z,98928.13
2022-11-01T00:17:36.278Z,98927.97
2022-11-01T00:22:39.472Z,98933.63
2022-11-01T00:27:42.969Z,98939.53
2022-11-01T00:32:47.627Z,98944.81
2022-11-01T00:37:50.932Z,98924.19
2022-11-01T00:42:54.421Z,98937.28
2022-11-01T00:47:59.818Z,98936.66
2022-11-01T00:53:03.486Z,98945.16
2022-11-01T00:58:06.913Z,98937.41
2022-11-01T01:03:11.897Z,98947.78
2022-11-01T01:08:15.209Z,98945.91
2022-11-01T01:13:18.906Z,98950.09
2022-11-01T01:18:23.833Z,98952.75
2022-11-01T01:23:27.275Z,98953.53
2022-11-01T01:28:30.580Z,98937.28
2022-11-01T01:33:35.513Z,98947.66
2022-11-01T01:38:38.779Z,98944.38
2022-11-01T01:43:43.466Z,98948.56
2022-11-01T01:48:52.826Z,98951.09
2022-11-01T01:53:58.632Z,98958.69
2022-11-01T01:59:05.738Z,98958.88
2022-11-01T02:04:17.519Z,98958.78
2022-11-01T02:09:21.860Z,98941.59
2022-11-01T02:14:27.101Z,98965.94
2022-11-01T02:20:15.257Z,98966.22
2022-11-01T02:25:46.448Z,98966.00
2022-11-01T02:31:04.797Z,98973.00
2022-11-01T02:36:16.944Z,98973.19
2022-11-01T02:41:25.059Z,98967.78
2022-11-01T02:46:49.007Z,98976.41
2022-11-01T02:51:55.291Z,98985.69
2022-11-01T02:57:01.161Z,98987.50
2022-11-01T03:02:09.795Z,98985.53
2022-11-01T03:07:17.014Z,98986.34
2022-11-01T03:12:26.635Z,98982.03
2022-11-01T03:17:34.509Z,98985.31
2022-11-01T03:22:44.545Z,98982.13
2022-11-01T03:27:49.027Z,98992.94
2022-11-01T03:32:56.324Z,98992.88
2022-11-01T03:38:07.086Z,98988.91
2022-11-01T03:43:15.286Z,98982.13
2022-11-01T03:48:18.767Z,98984.47
2022-11-01T03:53:24.016Z,98976.84
2022-11-01T03:58:42.068Z,98983.06
2022-11-01T04:03:46.394Z,98967.53
2022-11-01T04:08:51.302Z,98991.56
2022-11-01T04:14:14.732Z,98978.66
2022-11-01T04:19:35.714Z,98983.25
2022-11-01T04:24:40.645Z,98980.81
2022-11-01T04:29:43.903Z,98975.13
2022-11-01T04:34:47.437Z,98987.81
2022-11-01T04:39:52.213Z,98991.38
2022-11-01T04:44:55.540Z,98999.06
2022-11-01T04:49:59.172Z,99003.38
2022-11-01T04:55:04.033Z,99010.50
2022-11-01T05:00:11.452Z,99009.50
2022-11-01T05:05:15.409Z,99007.84
2022-11-01T05:10:20.304Z,99008.19
2022-11-01T05:15:23.335Z,99007.97
2022-11-01T05:20:26.881Z,99002.00
2022-11-01T05:25:34.074Z,99009.03
2022-11-01T05:30:40.738Z,99013.59
2022-11-01T05:35:44.359Z,99012.81
2022-11-01T05:40:49.341Z,99017.19
2022-11-01T05:45:52.908Z,99012.88
2022-11-01T05:50:56.346Z,99013.91
2022-11-01T05:56:01.122Z,99025.22
2022-11-01T06:01:07.585Z,99026.06
2022-11-01T06:06:12.211Z,99021.72
2022-11-01T06:11:17.213Z,99032.00
2022-11-01T06:16:20.589Z,99024.91
2022-11-01T06:21:27.613Z,99023.81
2022-11-01T06:26:34.843Z,99030.19
2022-11-01T06:31:38.160Z,99032.84
2022-11-01T06:36:41.800Z,99037.25
2022-11-01T06:41:46.730Z,99035.81
2022-11-01T06:46:49.821Z,99038.41
2022-11-01T06:51:53.655Z,99040.03
2022-11-01T06:56:59.075Z,99041.72
2022-11-01T07:02:02.897Z,99037.53
2022-11-01T07:07:06.451Z,99054.84
2022-11-01T07:12:11.286Z,99049.97
2022-11-01T07:17:14.535Z,99051.94
2022-11-01T07:22:18.076Z,99061.16
2022-11-01T07:27:22.999Z,99066.66
2022-11-01T07:32:26.212Z,99065.94
2022-11-01T07:37:31.153Z,99063.56
2022-11-01T07:42:41.864Z,99073.84
2022-11-01T07:47:45.369Z,99067.63
2022-11-01T07:52:48.734Z,99074.53
2022-11-01T07:57:53.403Z,99074.78
2022-11-01T08:03:02.327Z,99079.34
2022-11-01T08:08:06.873Z,99059.56
2022-11-01T08:13:17.043Z,99076.34
2022-11-01T08:18:22.741Z,99079.38
2022-11-01T08:23:26.090Z,99081.19
2022-11-01T08:28:30.932Z,99084.47
2022-11-01T08:33:34.344Z,99077.13
2022-11-01T08:38:37.719Z,99075.66
2022-11-01T08:43:42.587Z,99070.84
2022-11-01T08:48:48.399Z,99079.81
2022-11-01T08:53:51.962Z,99076.53
2022-11-01T08:58:58.064Z,99067.09
2022-11-01T09:04:01.750Z,99062.13
2022-11-01T09:09:05.680Z,99072.03
2022-11-01T09:14:10.557Z,99078.97
2022-11-01T09:19:13.598Z,99071.38
2022-11-01T09:24:18.333Z,99072.75
2022-11-01T09:29:23.151Z,99074.28
2022-11-01T09:34:29.959Z,99077.81
2022-11-01T09:39:33.476Z,99067.72
2022-11-01T09:44:42.722Z,99079.13
2022-11-01T09:49:49.475Z,99069.69
2022-11-01T09:54:53.375Z,99072.00
2022-11-01T10:00:07.092Z,99078.78
2022-11-01T10:05:43.344Z,99054.13
2022-11-01T10:10:53.959Z,99062.66
2022-11-01T10:16:06.399Z,99061.94
2022-11-01T10:21:16.190Z,99065.16
2022-11-01T10:26:23.170Z,99063.16
2022-11-01T10:31:30.027Z,99072.41
2022-11-01T10:41:50.195Z,99086.88
2022-11-01T10:46:55.938Z,99074.88
2022-11-01T10:52:06.711Z,99082.63
2022-11-01T10:57:15.239Z,99083.28
2022-11-01T11:02:27.980Z,99081.63
2022-11-01T11:07:32.806Z,99078.88
2022-11-01T11:12:37.574Z,99081.63
2022-11-01T11:17:45.858Z,99079.00
2022-11-01T11:22:49.379Z,99084.13
2022-11-01T11:27:54.414Z,99086.03
2022-11-01T11:33:00.140Z,99081.84
2022-11-01T11:38:05.915Z,99072.25
2022-11-01T11:43:31.977Z,99082.84
2022-11-01T11:48:48.288Z,99074.25
2022-11-01T11:54:11.475Z,99076.91
2022-11-01T11:59:23.562Z,99074.16
2022-11-01T12:04:33.315Z,99084.03
2022-11-01T12:09:44.605Z,99090.03
2022-11-01T12:14:48.191Z,99079.63
2022-11-01T12:20:00.242Z,99075.38
2022-11-01T12:25:08.537Z,99081.31
2022-11-01T12:30:18.659Z,99076.22
2022-11-01T12:35:36.051Z,99079.81
2022-11-01T12:40:41.283Z,99083.13
2022-11-01T12:45:51.496Z,99084.91
2022-11-01T12:50:59.809Z,99088.22
2022-11-01T12:56:03.664Z,99089.03
2022-11-01T13:01:21.526Z,99078.69
2022-11-01T13:06:49.949Z,99070.16
2022-11-01T13:12:01.139Z,99075.16
2022-11-01T13:17:14.500Z,99072.28
2022-11-01T13:22:26.533Z,99067.94
2022-11-01T13:27:38.140Z,99057.28
2022-11-01T13:32:50.345Z,99063.13
2022-11-01T13:38:01.062Z,99072.78
2022-11-01T13:43:11.919Z,99076.31
2022-11-01T13:48:29.048Z,99078.03
2022-11-01T13:53:38.079Z,99084.00
2022-11-01T13:58:42.454Z,99075.19
2022-11-01T14:03:49.823Z,99074.34
2022-11-01T14:09:29.850Z,99072.00
2022-11-01T14:14:53.406Z,99063.47
2022-11-01T14:20:29.867Z,99064.38
2022-11-01T14:25:36.498Z,99063.34
2022-11-01T14:30:43.597Z,99069.34
2022-11-01T14:35:51.910Z,99066.06
2022-11-01T14:40:58.936Z,99058.41
2022-11-01T14:46:05.044Z,99052.28
2022-11-01T14:51:17.809Z,99060.13
2022-11-01T14:56:24.199Z,99055.84
2022-11-01T15:01:27.784Z,99048.94
2022-11-01T15:06:32.206Z,99042.94
2022-11-01T15:11:37.454Z,99044.66
2022-11-01T15:16:44.880Z,99045.28
2022-11-01T15:21:50.004Z,99041.97
2022-11-01T15:26:55.524Z,99043.75
2022-11-01T15:32:01.702Z,99026.50
2022-11-01T15:37:12.431Z,99049.88
2022-11-01T15:42:18.069Z,99046.41
2022-11-01T15:47:24.071Z,99049.84
2022-11-01T15:52:31.739Z,99043.03
2022-11-01T15:57:42.326Z,99052.59
2022-11-01T16:02:49.312Z,99053.31
2022-11-01T16:07:53.482Z,99053.28
2022-11-01T16:13:01.400Z,99043.81
2022-11-01T16:18:17.327Z,99045.47
2022-11-01T16:23:28.003Z,99050.66
2022-11-01T16:28:40.460Z,99050.56
2022-11-01T16:33:45.787Z,99046.22
2022-11-01T16:38:51.144Z,99047.91
2022-11-01T16:43:58.247Z,99037.81
2022-11-01T16:49:05.748Z,99038.66
2022-11-01T16:54:10.396Z,99037.00
2022-11-01T16:59:26.767Z,99032.81
2022-11-01T17:04:30.386Z,99026.66
2022-11-01T17:09:35.743Z,99036.19
2022-11-01T17:19:57.737Z,99032.66
2022-11-01T17:25:01.500Z,99025.63
2022-11-01T17:30:07.973Z,99015.19
2022-11-01T17:35:12.050Z,99013.25
2022-11-01T17:40:20.639Z,99014.94
2022-11-01T17:45:30.125Z,99021.78
2022-11-01T17:50:33.755Z,99014.88
2022-11-01T17:55:37.591Z,99019.31
2022-11-01T18:00:44.716Z,99015.19
2022-11-01T18:05:48.044Z,99009.09
2022-11-01T18:11:04.316Z,99002.41
2022-11-01T18:16:23.289Z,99005.94
2022-11-01T18:21:33.501Z,99014.50
2022-11-01T18:26:36.972Z,99011.75
2022-11-01T18:31:45.965Z,99015.28
2022-11-01T18:36:54.371Z,99010.84
2022-11-01T18:41:57.784Z,99008.13
2022-11-01T18:47:09.517Z,99013.47
2022-11-01T18:52:17.018Z,99010.00
2022-11-01T18:57:24.968Z,99013.69
2022-11-01T19:02:31.422Z,99004.22
2022-11-01T19:08:04.883Z,99006.06
2022-11-01T19:12:59.325Z,99014.47
2022-11-01T19:18:13.841Z,99000.06
2022-11-01T19:23:20.001Z,99012.06
2022-11-01T19:28:27.453Z,99013.72
2022-11-01T19:33:37.291Z,99014.66
2022-11-01T19:38:45.029Z,99005.06
2022-11-01T19:43:49.231Z,99004.28
2022-11-01T19:48:54.573Z,98998.31
2022-11-01T19:54:00.992Z,98998.31
2022-11-01T19:59:05.126Z,99000.13
2022-11-01T20:04:27.376Z,99000.47
2022-11-01T20:09:35.645Z,98997.97
2022-11-01T20:14:38.997Z,98991.84
2022-11-01T20:19:45.258Z,98994.47
2022-11-01T20:24:48.647Z,98993.41
2022-11-01T20:29:52.237Z,98999.53
2022-11-01T20:34:58.093Z,99005.63
2022-11-01T20:40:01.858Z,99009.78
2022-11-01T20:45:07.494Z,99008.94
2022-11-01T20:50:17.772Z,99010.66
2022-11-01T20:55:21.134Z,98998.47
2022-11-01T21:00:24.845Z,98999.47
2022-11-01T21:05:31.426Z,99011.56
2022-11-01T21:10:36.302Z,99004.75
2022-11-01T21:15:40.704Z,99005.69
2022-11-01T21:20:47.358Z,99003.97
2022-11-01T21:25:51.979Z,99001.38
2022-11-01T21:30:55.904Z,98999.47
2022-11-01T21:36:00.765Z,98994.28
2022-11-01T21:41:09.937Z,98996.09
2022-11-01T21:46:17.968Z,98990.00
2022-11-01T21:51:22.841Z,98984.84
2022-11-01T21:56:25.991Z,98983.25
2022-11-01T22:01:31.003Z,98982.25
2022-11-01T22:06:35.745Z,98983.22
2022-11-01T22:11:39.491Z,98983.00
2022-11-01T22:16:43.013Z,98981.03
2022-11-01T22:21:47.737Z,98971.59
2022-11-01T22:26:51.369Z,98972.34
2022-11-01T22:31:54.677Z,98980.69
2022-11-01T22:37:00.652Z,98979.59
2022-11-01T22:42:04.188Z,98976.22
2022-11-01T22:47:07.584Z,98975.44
2022-11-01T22:52:21.638Z,98967.38
2022-11-01T22:57:29.110Z,98968.09
2022-11-01T23:02:34.876Z,98959.72
2022-11-01T23:07:43.818Z,98954.66
2022-11-01T23:13:05.363Z,98937.25
2022-11-01T23:18:19.487Z,98934.03
2022-11-01T23:23:25.328Z,98933.50
2022-11-01T23:28:29.471Z,98913.56
2022-11-01T23:33:36.583Z,98920.66
2022-11-01T23:38:45.335Z,98913.09
2022-11-01T23:43:49.140Z,98907.94
2022-11-01T23:48:58.157Z,98922.53
2022-11-01T23:54:03.402Z,98914.03
2022-11-01T23:59:07.164Z,98906.13
